createdAt,value
2023-11-26T00:01:27.993Z,97112.00
2023-11-26T00:03:54.911Z,97112.03
2023-11-26T00:06:21.684Z,97107.75
2023-11-26T00:08:48.419Z,97111.59
2023-11-26T00:11:15.224Z,97121.25
2023-11-26T00:13:42.176Z,97123.22
2023-11-26T00:16:09.008Z,97117.06
2023-11-26T00:18:38.726Z,97118.91
2023-11-26T00:21:05.688Z,97119.13
2023-11-26T00:23:32.301Z,97118.63
2023-11-26T00:25:59.098Z,97126.81
2023-11-26T00:28:25.980Z,97131.63
2023-11-26T00:30:52.939Z,97128.69
2023-11-26T00:33:20.452Z,97138.25
2023-11-26T00:35:47.514Z,97144.13
2023-11-26T00:38:14.229Z,97149.75
2023-11-26T00:40:41.181Z,97156.06
2023-11-26T00:43:07.870Z,97154.06
2023-11-26T00:45:35.537Z,97165.19
2023-11-26T00:48:02.594Z,97176.31
2023-11-26T00:50:29.713Z,97175.25
2023-11-26T00:52:56.563Z,97182.78
2023-11-26T00:55:23.411Z,97195.19
2023-11-26T00:57:50.940Z,97200.94
2023-11-26T01:03:32.241Z,97196.75
2023-11-26T01:06:00.159Z,97208.06
2023-11-26T01:08:26.936Z,97199.69
2023-11-26T01:10:53.712Z,97200.19
2023-11-26T01:13:20.864Z,97203.25
2023-11-26T01:15:47.667Z,97202.38
2023-11-26T01:18:14.621Z,97209.31
2023-11-26T01:20:41.379Z,97208.91
2023-11-26T01:23:08.429Z,97215.97
2023-11-26T01:25:35.452Z,97224.38
2023-11-26T01:28:02.365Z,97220.09
2023-11-26T01:30:29.078Z,97228.06
2023-11-26T01:32:56.119Z,97234.88
2023-11-26T01:35:22.972Z,97229.53
2023-11-26T01:37:49.913Z,97231.34
2023-11-26T01:40:16.616Z,97234.59
2023-11-26T01:42:45.209Z,97235.03
2023-11-26T01:45:15.005Z,97239.44
2023-11-26T01:47:42.116Z,97250.16
2023-11-26T01:50:10.593Z,97248.22
2023-11-26T01:52:37.786Z,97251.28
2023-11-26T01:55:05.548Z,97261.38
2023-11-26T01:57:32.570Z,97269.47
2023-11-26T02:00:00.654Z,97274.03
2023-11-26T02:02:27.608Z,97270.03
2023-11-26T02:04:54.414Z,97275.63
2023-11-26T02:07:21.374Z,97279.19
2023-11-26T02:09:48.832Z,97283.78
2023-11-26T02:12:15.630Z,97287.41
2023-11-26T02:14:47.726Z,97296.09
2023-11-26T02:17:16.217Z,97288.88
2023-11-26T02:19:44.096Z,97291.13
2023-11-26T02:22:10.863Z,97295.25
2023-11-26T02:24:48.084Z,97299.63
2023-11-26T02:27:15.629Z,97300.34
2023-11-26T02:29:43.098Z,97299.56
2023-11-26T02:32:10.233Z,97301.31
2023-11-26T02:34:37.682Z,97300.75
2023-11-26T02:37:04.884Z,97301.69
2023-11-26T02:39:31.623Z,97306.56
2023-11-26T02:42:02.190Z,97313.84
2023-11-26T02:44:29.092Z,97317.66
2023-11-26T02:46:55.902Z,97315.94
2023-11-26T02:49:23.645Z,97316.53
2023-11-26T02:51:50.434Z,97324.31
2023-11-26T02:54:17.186Z,97331.22
2023-11-26T02:56:45.529Z,97326.38
2023-11-26T02:59:14.205Z,97330.75
2023-11-26T03:01:41.817Z,97326.75
2023-11-26T03:04:10.290Z,97340.72
2023-11-26T03:06:37.916Z,97338.94
2023-11-26T03:09:23.300Z,97340.13
2023-11-26T03:12:08.820Z,97345.22
2023-11-26T03:14:35.598Z,97353.81
2023-11-26T03:17:02.885Z,97347.72
2023-11-26T03:19:30.190Z,97351.66
2023-11-26T03:21:59.368Z,97348.56
2023-11-26T03:24:26.095Z,97353.53
2023-11-26T03:26:52.773Z,97356.78
2023-11-26T03:29:19.840Z,97356.72
2023-11-26T03:31:48.626Z,97362.16
2023-11-26T03:34:15.515Z,97367.72
2023-11-26T03:36:42.496Z,97363.16
2023-11-26T03:39:09.253Z,97362.53
2023-11-26T03:41:35.989Z,97375.97
2023-11-26T03:44:03.763Z,97366.97
2023-11-26T03:46:33.849Z,97367.81
2023-11-26T03:49:01.533Z,97375.84
2023-11-26T03:51:29.836Z,97375.00
2023-11-26T03:53:57.144Z,97380.84
2023-11-26T03:56:25.244Z,97385.19
2023-11-26T03:58:52.194Z,97392.19
2023-11-26T04:01:19.069Z,97396.28
2023-11-26T04:03:45.800Z,97402.34
2023-11-26T04:06:12.636Z,97406.09
2023-11-26T04:08:39.388Z,97409.00
2023-11-26T04:11:07.219Z,97412.28
2023-11-26T04:13:34.868Z,97418.97
2023-11-26T04:16:06.315Z,97416.47
2023-11-26T04:18:35.335Z,97423.09
2023-11-26T04:21:02.697Z,97436.56
2023-11-26T04:23:29.717Z,97424.78
2023-11-26T04:25:56.675Z,97437.69
2023-11-26T04:28:23.435Z,97438.13
2023-11-26T04:30:50.360Z,97436.72
2023-11-26T04:33:19.795Z,97442.00
2023-11-26T04:35:46.591Z,97438.28
2023-11-26T04:38:13.909Z,97436.34
2023-11-26T04:40:41.163Z,97449.19
2023-11-26T04:43:07.954Z,97445.34
2023-11-26T04:45:34.737Z,97451.25
2023-11-26T04:48:01.540Z,97457.31
2023-11-26T04:50:29.374Z,97448.63
2023-11-26T04:52:56.220Z,97451.72
2023-11-26T04:55:23.723Z,97457.13
2023-11-26T04:57:50.578Z,97447.50
2023-11-26T05:00:17.914Z,97455.94
2023-11-26T05:02:44.924Z,97466.72
2023-11-26T05:05:11.971Z,97475.34
2023-11-26T05:07:39.511Z,97475.16
2023-11-26T05:10:07.718Z,97476.47
2023-11-26T05:12:36.013Z,97478.59
2023-11-26T05:15:05.718Z,97481.63
2023-11-26T05:17:32.697Z,97481.31
2023-11-26T05:19:59.701Z,97479.78
2023-11-26T05:22:26.595Z,97488.56
2023-11-26T05:24:53.314Z,97488.97
2023-11-26T05:27:20.078Z,97490.25
2023-11-26T05:29:46.820Z,97501.22
2023-11-26T05:32:13.684Z,97498.00
2023-11-26T05:34:40.381Z,97505.09
2023-11-26T05:37:07.239Z,97504.75
2023-11-26T05:39:34.075Z,97513.38
2023-11-26T05:42:01.242Z,97509.03
2023-11-26T05:44:27.994Z,97517.50
2023-11-26T05:46:54.837Z,97505.44
2023-11-26T05:49:21.690Z,97518.06
2023-11-26T05:51:48.396Z,97517.22
2023-11-26T05:54:15.545Z,97516.88
2023-11-26T05:56:45.440Z,97521.44
2023-11-26T05:59:12.217Z,97522.34
2023-11-26T06:01:39.087Z,97520.00
2023-11-26T06:04:05.852Z,97517.25
2023-11-26T06:06:32.636Z,97525.94
2023-11-26T06:08:59.413Z,97529.06
2023-11-26T06:11:26.275Z,97523.97
2023-11-26T06:13:53.061Z,97525.22
2023-11-26T06:16:19.738Z,97527.00
2023-11-26T06:18:46.790Z,97528.69
2023-11-26T06:21:16.518Z,97533.47
2023-11-26T06:23:43.345Z,97533.88
2023-11-26T06:26:10.072Z,97535.69
2023-11-26T06:28:37.511Z,97542.06
2023-11-26T06:31:04.893Z,97538.81
2023-11-26T06:33:31.475Z,97541.47
2023-11-26T06:36:00.142Z,97550.97
2023-11-26T06:38:26.912Z,97549.72
2023-11-26T06:40:53.758Z,97557.25
2023-11-26T06:43:20.485Z,97559.72
2023-11-26T06:45:47.313Z,97546.59
2023-11-26T06:48:14.068Z,97557.34
2023-11-26T06:50:41.032Z,97562.94
2023-11-26T06:53:08.278Z,97570.38
2023-11-26T06:55:35.001Z,97573.47
2023-11-26T06:58:01.872Z,97569.41
2023-11-26T07:00:31.135Z,97572.81
2023-11-26T07:02:58.539Z,97585.97
2023-11-26T07:05:25.618Z,97579.22
2023-11-26T07:07:52.534Z,97580.59
2023-11-26T07:10:19.309Z,97589.03
2023-11-26T07:12:46.020Z,97596.03
2023-11-26T07:15:12.958Z,97597.28
2023-11-26T07:17:39.737Z,97591.00
2023-11-26T07:20:11.411Z,97597.25
2023-11-26T07:22:38.297Z,97602.31
2023-11-26T07:25:05.670Z,97589.03
2023-11-26T07:27:32.458Z,97604.16
2023-11-26T07:29:59.138Z,97602.75
2023-11-26T07:32:28.036Z,97606.25
2023-11-26T07:34:54.858Z,97605.56
2023-11-26T07:37:22.691Z,97608.66
2023-11-26T07:39:49.515Z,97602.06
2023-11-26T07:42:16.680Z,97605.59
2023-11-26T07:44:43.358Z,97596.91
2023-11-26T07:47:10.082Z,97612.19
2023-11-26T07:49:37.612Z,97615.56
2023-11-26T07:52:05.134Z,97612.19
2023-11-26T07:54:31.950Z,97617.81
2023-11-26T07:56:58.689Z,97619.59
2023-11-26T07:59:25.383Z,97622.31
2023-11-26T08:01:53.772Z,97622.16
2023-11-26T08:04:20.872Z,97617.59
2023-11-26T08:06:50.989Z,97624.75
2023-11-26T08:09:18.606Z,97621.06
2023-11-26T08:11:47.516Z,97623.59
2023-11-26T08:14:15.458Z,97628.38
2023-11-26T08:16:43.990Z,97628.81
2023-11-26T08:19:19.066Z,97630.25
2023-11-26T08:21:46.047Z,97629.56
2023-11-26T08:24:19.225Z,97633.88
2023-11-26T08:26:47.594Z,97633.28
2023-11-26T08:29:17.580Z,97643.59
2023-11-26T08:31:45.935Z,97647.56
2023-11-26T08:34:17.135Z,97648.00
2023-11-26T08:36:45.195Z,97658.59
2023-11-26T08:39:21.186Z,97655.59
2023-11-26T08:41:48.354Z,97662.31
2023-11-26T08:44:15.465Z,97664.16
2023-11-26T08:46:43.016Z,97663.47
2023-11-26T08:49:10.935Z,97673.19
2023-11-26T08:51:38.929Z,97664.63
2023-11-26T08:54:05.983Z,97666.91
2023-11-26T08:56:32.644Z,97671.75
2023-11-26T08:58:59.903Z,97671.06
2023-11-26T09:01:26.829Z,97671.91
2023-11-26T09:03:53.552Z,97684.06
2023-11-26T09:06:20.434Z,97678.56
2023-11-26T09:08:52.041Z,97682.78
2023-11-26T09:11:19.826Z,97679.56
2023-11-26T09:13:47.717Z,97687.91
2023-11-26T09:16:14.827Z,97685.28
2023-11-26T09:18:41.942Z,97686.94
2023-11-26T09:21:08.815Z,97691.22
2023-11-26T09:23:35.812Z,97696.97
2023-11-26T09:26:02.606Z,97695.19
2023-11-26T09:28:31.275Z,97687.94
2023-11-26T09:30:58.187Z,97688.38
2023-11-26T09:33:26.102Z,97686.03
2023-11-26T09:35:52.901Z,97692.34
2023-11-26T09:38:20.543Z,97692.56
2023-11-26T09:40:47.444Z,97697.34
2023-11-26T09:43:14.898Z,97694.22
2023-11-26T09:45:41.813Z,97696.06
2023-11-26T09:48:10.906Z,97688.06
2023-11-26T09:50:38.044Z,97687.94
2023-11-26T09:53:08.309Z,97688.91
2023-11-26T09:55:40.599Z,97686.69
2023-11-26T09:58:08.319Z,97690.97
2023-11-26T10:00:35.858Z,97686.28
2023-11-26T10:03:04.280Z,97687.00
2023-11-26T10:05:33.877Z,97692.56
2023-11-26T10:08:02.259Z,97694.31
2023-11-26T10:10:29.773Z,97691.47
2023-11-26T10:13:01.611Z,97693.09
2023-11-26T10:15:30.901Z,97696.94
2023-11-26T10:18:01.834Z,97695.88
2023-11-26T10:20:28.948Z,97696.00
2023-11-26T10:22:55.804Z,97689.88
2023-11-26T10:25:24.299Z,97688.56
2023-11-26T10:27:56.834Z,97685.31
2023-11-26T10:30:34.400Z,97688.56
2023-11-26T10:33:06.867Z,97685.38
2023-11-26T10:35:50.144Z,97687.22
2023-11-26T10:38:18.815Z,97688.41
2023-11-26T10:40:46.337Z,97681.84
2023-11-26T10:43:13.809Z,97679.13
2023-11-26T10:45:43.664Z,97679.72
2023-11-26T10:48:20.007Z,97679.66
2023-11-26T10:50:53.618Z,97682.16
2023-11-26T10:53:34.053Z,97677.97
2023-11-26T10:56:04.301Z,97676.22
2023-11-26T10:58:40.329Z,97677.09
2023-11-26T11:01:08.719Z,97675.78
2023-11-26T11:03:35.805Z,97675.22
2023-11-26T11:06:03.981Z,97680.19
2023-11-26T11:08:31.861Z,97673.81
2023-11-26T11:11:23.609Z,97675.63
2023-11-26T11:13:53.340Z,97675.56
2023-11-26T11:16:20.901Z,97668.84
2023-11-26T11:18:47.915Z,97683.59
2023-11-26T11:21:17.834Z,97690.69
2023-11-26T11:23:53.754Z,97675.72
2023-11-26T11:26:22.633Z,97691.31
2023-11-26T11:28:55.242Z,97686.81
2023-11-26T11:31:25.041Z,97683.72
2023-11-26T11:34:12.893Z,97696.97
2023-11-26T11:36:49.287Z,97687.88
2023-11-26T11:39:18.830Z,97691.81
2023-11-26T11:41:57.453Z,97687.00
2023-11-26T11:44:32.490Z,97691.34
2023-11-26T11:47:00.997Z,97693.13
2023-11-26T11:49:48.088Z,97689.91
2023-11-26T11:52:15.885Z,97692.28
2023-11-26T11:54:48.725Z,97694.63
2023-11-26T11:57:17.123Z,97685.06
2023-11-26T11:59:45.807Z,97696.59
2023-11-26T12:02:13.876Z,97689.94
2023-11-26T12:04:43.636Z,97688.91
2023-11-26T12:07:10.884Z,97693.84
2023-11-26T12:09:39.612Z,97693.59
2023-11-26T12:12:07.870Z,97688.16
2023-11-26T12:14:38.791Z,97695.31
2023-11-26T12:17:09.496Z,97696.56
2023-11-26T12:19:43.097Z,97690.97
2023-11-26T12:22:11.801Z,97691.91
2023-11-26T12:24:40.560Z,97680.63
2023-11-26T12:27:09.434Z,97686.94
2023-11-26T12:29:39.686Z,97688.41
2023-11-26T12:32:09.612Z,97687.00
2023-11-26T12:34:41.189Z,97696.38
2023-11-26T12:37:13.832Z,97688.88
2023-11-26T12:39:44.968Z,97679.31
2023-11-26T12:42:12.128Z,97687.66
2023-11-26T12:44:39.895Z,97680.19
2023-11-26T12:47:11.813Z,97679.72
2023-11-26T12:49:43.483Z,97683.50
2023-11-26T12:52:12.021Z,97676.53
2023-11-26T12:54:39.647Z,97678.63
2023-11-26T12:57:07.636Z,97675.75
2023-11-26T12:59:48.446Z,97678.94
2023-11-26T13:02:16.756Z,97671.50
2023-11-26T13:04:44.633Z,97667.69
2023-11-26T13:07:11.875Z,97679.72
2023-11-26T13:09:53.320Z,97679.50
2023-11-26T13:12:21.886Z,97679.34
2023-11-26T13:14:49.890Z,97690.56
2023-11-26T13:17:19.667Z,97694.75
2023-11-26T13:19:48.927Z,97700.94
2023-11-26T13:22:16.292Z,97695.47
2023-11-26T13:24:44.115Z,97701.56
2023-11-26T13:27:11.916Z,97700.66
2023-11-26T13:29:43.253Z,97707.25
2023-11-26T13:32:10.555Z,97702.56
2023-11-26T13:34:39.071Z,97697.25
2023-11-26T13:37:10.477Z,97698.06
2023-11-26T13:39:38.103Z,97694.81
2023-11-26T13:42:05.536Z,97697.63
2023-11-26T13:44:37.331Z,97696.81
2023-11-26T13:47:06.322Z,97701.16
2023-11-26T13:49:33.293Z,97707.72
2023-11-26T13:52:03.473Z,97703.88
2023-11-26T13:54:32.099Z,97708.44
2023-11-26T13:56:59.003Z,97709.94
2023-11-26T13:59:26.524Z,97716.41
2023-11-26T14:01:56.041Z,97714.97
2023-11-26T14:04:24.623Z,97716.66
2023-11-26T14:06:58.937Z,97715.38
2023-11-26T14:09:27.502Z,97715.38
2023-11-26T14:11:55.361Z,97706.94
2023-11-26T14:14:22.866Z,97713.88
2023-11-26T14:16:49.939Z,97712.53
2023-11-26T14:19:18.022Z,97708.47
2023-11-26T14:21:45.632Z,97707.47
2023-11-26T14:24:13.362Z,97714.81
2023-11-26T14:26:42.405Z,97712.72
2023-11-26T14:29:10.193Z,97711.72
2023-11-26T14:31:38.395Z,97712.69
2023-11-26T14:34:06.118Z,97715.59
2023-11-26T14:36:34.040Z,97720.63
2023-11-26T14:39:02.946Z,97717.53
2023-11-26T14:41:30.938Z,97727.00
2023-11-26T14:43:59.070Z,97717.28
2023-11-26T14:46:26.248Z,97723.56
2023-11-26T14:48:53.319Z,97722.56
2023-11-26T14:51:21.549Z,97720.84
2023-11-26T14:53:51.335Z,97725.28
2023-11-26T14:56:18.716Z,97729.09
2023-11-26T14:58:45.941Z,97726.75
2023-11-26T15:01:15.270Z,97728.75
2023-11-26T15:03:48.387Z,97729.50
2023-11-26T15:06:15.552Z,97730.53
2023-11-26T15:08:42.736Z,97727.81
2023-11-26T15:11:11.666Z,97719.38
2023-11-26T15:13:38.500Z,97719.47
2023-11-26T15:16:05.977Z,97720.06
2023-11-26T15:18:33.689Z,97718.06
2023-11-26T15:21:03.641Z,97720.22
2023-11-26T15:23:34.650Z,97718.03
2023-11-26T15:26:02.811Z,97706.38
2023-11-26T15:28:29.795Z,97711.91
2023-11-26T15:30:57.832Z,97702.56
2023-11-26T15:33:24.867Z,97695.16
2023-11-26T15:35:52.536Z,97696.50
2023-11-26T15:38:19.935Z,97696.00
2023-11-26T15:40:48.491Z,97696.59
2023-11-26T15:43:18.042Z,97698.84
2023-11-26T15:45:47.941Z,97696.72
2023-11-26T15:48:18.934Z,97698.72
2023-11-26T15:50:46.173Z,97695.03
2023-11-26T15:53:13.199Z,97694.81
2023-11-26T15:55:39.961Z,97701.06
2023-11-26T15:58:06.826Z,97695.81
2023-11-26T16:00:33.642Z,97700.44
2023-11-26T16:03:00.423Z,97701.81
2023-11-26T16:05:28.441Z,97694.09
2023-11-26T16:07:55.395Z,97702.28
2023-11-26T16:10:22.905Z,97702.38
2023-11-26T16:12:51.249Z,97702.22
2023-11-26T16:15:18.515Z,97701.75
2023-11-26T16:17:45.478Z,97697.31
2023-11-26T16:20:13.343Z,97701.28
2023-11-26T16:22:40.437Z,97699.59
2023-11-26T16:25:10.899Z,97691.16
2023-11-26T16:27:38.112Z,97696.28
2023-11-26T16:30:07.293Z,97693.03
2023-11-26T16:32:34.464Z,97694.50
2023-11-26T16:35:01.410Z,97686.38
2023-11-26T16:37:30.175Z,97691.19
2023-11-26T16:39:57.954Z,97699.13
2023-11-26T16:42:25.279Z,97702.84
2023-11-26T16:44:52.652Z,97693.53
2023-11-26T16:47:20.171Z,97689.09
2023-11-26T16:49:48.239Z,97695.41
2023-11-26T16:52:15.165Z,97687.31
2023-11-26T16:54:42.953Z,97686.69
2023-11-26T16:57:10.286Z,97681.25
2023-11-26T16:59:38.521Z,97682.81
2023-11-26T17:02:05.518Z,97676.63
2023-11-26T17:04:32.343Z,97682.25
2023-11-26T17:06:59.222Z,97683.84
2023-11-26T17:09:26.716Z,97677.59
2023-11-26T17:11:53.762Z,97671.78
2023-11-26T17:14:20.608Z,97673.28
2023-11-26T17:16:51.213Z,97670.69
2023-11-26T17:19:18.644Z,97664.25
2023-11-26T17:21:47.519Z,97656.00
2023-11-26T17:24:16.043Z,97663.81
2023-11-26T17:26:44.241Z,97657.16
2023-11-26T17:29:12.038Z,97662.00
2023-11-26T17:31:40.523Z,97664.28
2023-11-26T17:34:09.479Z,97668.66
2023-11-26T17:36:40.399Z,97671.69
2023-11-26T17:39:07.876Z,97674.34
2023-11-26T17:41:34.961Z,97676.69
2023-11-26T17:44:02.780Z,97679.88
2023-11-26T17:46:30.012Z,97673.22
2023-11-26T17:48:57.155Z,97676.97
2023-11-26T17:51:24.935Z,97681.50
2023-11-26T17:53:51.957Z,97675.44
2023-11-26T17:56:20.154Z,97677.78
2023-11-26T17:58:47.326Z,97681.28
2023-11-26T18:01:14.852Z,97689.47
2023-11-26T18:03:42.009Z,97683.28
2023-11-26T18:09:18.072Z,97676.31
2023-11-26T18:11:45.422Z,97670.78
2023-11-26T18:14:15.428Z,97673.56
2023-11-26T18:16:47.475Z,97678.19
2023-11-26T18:19:15.556Z,97674.06
2023-11-26T18:21:43.439Z,97671.59
2023-11-26T18:24:13.465Z,97671.81
2023-11-26T18:26:40.295Z,97668.97
2023-11-26T18:29:07.604Z,97662.38
2023-11-26T18:31:41.332Z,97660.56
2023-11-26T18:34:08.508Z,97652.69
2023-11-26T18:36:35.314Z,97650.50
2023-11-26T18:39:02.583Z,97654.88
2023-11-26T18:41:29.510Z,97642.91
2023-11-26T18:43:57.158Z,97651.34
2023-11-26T18:46:27.376Z,97644.41
2023-11-26T18:48:54.331Z,97637.19
2023-11-26T18:51:21.351Z,97643.16
2023-11-26T18:53:48.116Z,97632.09
2023-11-26T18:56:21.949Z,97625.75
2023-11-26T18:58:48.785Z,97625.84
2023-11-26T19:01:16.312Z,97621.72
2023-11-26T19:03:43.705Z,97622.31
2023-11-26T19:06:16.223Z,97627.06
2023-11-26T19:08:43.815Z,97621.00
2023-11-26T19:11:13.779Z,97616.75
2023-11-26T19:13:41.824Z,97620.72
2023-11-26T19:16:13.614Z,97617.97
2023-11-26T19:18:40.840Z,97616.13
2023-11-26T19:21:08.013Z,97614.53
2023-11-26T19:23:35.243Z,97620.88
2023-11-26T19:26:02.014Z,97612.34
2023-11-26T19:28:30.972Z,97611.31
2023-11-26T19:31:00.601Z,97622.66
2023-11-26T19:33:28.141Z,97613.09
2023-11-26T19:35:54.969Z,97618.00
2023-11-26T19:38:22.179Z,97612.94
2023-11-26T19:40:51.531Z,97609.50
2023-11-26T19:43:18.994Z,97609.28
2023-11-26T19:45:45.841Z,97600.41
2023-11-26T19:48:13.556Z,97606.97
2023-11-26T19:50:41.026Z,97589.75
2023-11-26T19:53:08.685Z,97593.53
2023-11-26T19:55:38.741Z,97599.97
2023-11-26T19:58:05.716Z,97595.41
2023-11-26T20:00:32.902Z,97599.25
2023-11-26T20:03:00.052Z,97583.13
2023-11-26T20:05:26.768Z,97595.81
2023-11-26T20:07:53.714Z,97590.25
2023-11-26T20:10:20.688Z,97593.19
2023-11-26T20:12:49.572Z,97580.25
2023-11-26T20:15:16.582Z,97584.34
2023-11-26T20:17:43.849Z,97578.72
2023-11-26T20:20:11.243Z,97577.38
2023-11-26T20:22:39.189Z,97574.25
2023-11-26T20:25:07.081Z,97568.25
2023-11-26T20:27:34.519Z,97576.44
2023-11-26T20:30:01.934Z,97567.88
2023-11-26T20:32:28.737Z,97573.50
2023-11-26T20:34:55.854Z,97560.72
2023-11-26T20:37:22.686Z,97564.88
2023-11-26T20:39:49.839Z,97571.53
2023-11-26T20:42:17.186Z,97570.56
2023-11-26T20:44:47.686Z,97566.31
2023-11-26T20:47:17.519Z,97558.13
2023-11-26T20:49:50.788Z,97555.69
2023-11-26T20:52:19.771Z,97559.78
2023-11-26T20:54:50.279Z,97552.31
2023-11-26T20:57:17.351Z,97551.78
2023-11-26T20:59:44.372Z,97550.25
2023-11-26T21:02:11.718Z,97538.56
2023-11-26T21:04:39.115Z,97554.19
2023-11-26T21:07:06.592Z,97544.41
2023-11-26T21:09:33.320Z,97541.84
2023-11-26T21:12:00.244Z,97549.63
2023-11-26T21:14:27.153Z,97547.94
2023-11-26T21:16:54.531Z,97540.06
2023-11-26T21:19:21.852Z,97540.28
2023-11-26T21:21:49.783Z,97541.22
2023-11-26T21:24:16.947Z,97543.44
2023-11-26T21:26:44.780Z,97539.88
2023-11-26T21:29:11.762Z,97536.03
2023-11-26T21:31:38.669Z,97540.94
2023-11-26T21:34:06.688Z,97535.97
2023-11-26T21:36:33.951Z,97536.00
2023-11-26T21:39:01.019Z,97534.63
2023-11-26T21:41:28.333Z,97547.81
2023-11-26T21:43:55.127Z,97528.03
2023-11-26T21:46:34.986Z,97528.22
2023-11-26T21:49:06.305Z,97534.13
2023-11-26T21:51:33.150Z,97534.31
2023-11-26T21:54:00.479Z,97525.59
2023-11-26T21:56:27.446Z,97522.81
2023-11-26T21:58:56.275Z,97511.84
2023-11-26T22:01:23.552Z,97525.06
2023-11-26T22:03:51.958Z,97523.25
2023-11-26T22:06:19.207Z,97522.88
2023-11-26T22:08:46.024Z,97525.06
2023-11-26T22:11:19.845Z,97515.97
2023-11-26T22:13:48.840Z,97513.94
2023-11-26T22:16:17.776Z,97510.16
2023-11-26T22:18:44.989Z,97517.63
2023-11-26T22:21:22.740Z,97506.44
2023-11-26T22:23:50.663Z,97502.56
2023-11-26T22:26:17.839Z,97498.44
2023-11-26T22:28:44.938Z,97497.91
2023-11-26T22:31:16.665Z,97508.66
2023-11-26T22:33:44.784Z,97505.72
2023-11-26T22:36:22.550Z,97499.94
2023-11-26T22:38:50.346Z,97503.06
2023-11-26T22:41:27.971Z,97499.69
2023-11-26T22:43:57.028Z,97498.63
2023-11-26T22:46:28.924Z,97500.75
2023-11-26T22:48:59.936Z,97500.88
2023-11-26T22:51:32.357Z,97499.38
2023-11-26T22:53:59.296Z,97479.78
2023-11-26T22:56:26.261Z,97484.00
2023-11-26T22:58:54.852Z,97475.03
2023-11-26T23:01:25.924Z,97483.50
2023-11-26T23:03:53.985Z,97482.75
2023-11-26T23:06:21.697Z,97479.16
2023-11-26T23:08:49.467Z,97477.72
2023-11-26T23:11:18.959Z,97480.97
2023-11-26T23:13:46.817Z,97469.59
2023-11-26T23:16:17.575Z,97465.94
2023-11-26T23:18:44.479Z,97463.38
2023-11-26T23:21:13.138Z,97478.56
2023-11-26T23:23:47.202Z,97467.56
2023-11-26T23:26:18.937Z,97473.25
2023-11-26T23:28:45.944Z,97475.59
2023-11-26T23:31:19.526Z,97483.66
2023-11-26T23:33:48.306Z,97479.25
2023-11-26T23:36:16.017Z,97479.38
2023-11-26T23:38:44.256Z,97483.19
2023-11-26T23:41:12.484Z,97479.03
2023-11-26T23:43:43.079Z,97476.31
2023-11-26T23:46:10.710Z,97476.22
2023-11-26T23:48:37.893Z,97474.91
2023-11-26T23:51:04.797Z,97471.75
2023-11-26T23:53:31.613Z,97468.56
2023-11-26T23:55:58.388Z,97467.63
2023-11-26T23:58:25.676Z,97478.56
